Time;durP1;ratioP1;P1;durP2;ratioP2;P2;SDS_P1;SDS_P2;PMS_P1;PMS_P2;Temp;Humidity;BMP_temperature;BMP_pressure;BME280_temperature;BME280_humidity;BME280_pressure;Samples;Min_cycle;Max_cycle;Signal;HPM_P1;HPM_P2
2022/03/19 00:01:07;;;;;;;29.00;17.53;;;6.60;93.60;;;;;;4994333;28;20026;-70
2022/03/19 00:03:32;;;;;;;28.37;17.07;;;6.60;93.70;;;;;;4991605;28;20032;-69
2022/03/19 00:05:58;;;;;;;29.53;16.67;;;6.50;94.40;;;;;;4993061;28;20105;-69
2022/03/19 00:08:25;;;;;;;27.87;16.53;;;6.50;94.20;;;;;;4993720;28;20033;-69
2022/03/19 00:10:50;;;;;;;;;;;6.40;94.30;;;;;;4990333;28;20021;-70
2022/03/19 00:13:17;;;;;;;29.42;17.58;;;6.40;94.60;;;;;;4991772;28;19913;-70
2022/03/19 00:15:43;;;;;;;28.70;16.85;;;6.40;94.70;;;;;;4995281;28;20087;-69
2022/03/19 00:18:09;;;;;;;29.20;16.90;;;6.30;94.90;;;;;;4989123;28;20030;-69
2022/03/19 00:20:37;;;;;;;27.50;16.40;;;6.20;95.10;;;;;;4994023;28;20459;-69
2022/03/19 00:23:03;;;;;;;27.65;15.75;;;6.20;95.30;;;;;;4989378;28;20022;-70
2022/03/19 00:25:29;;;;;;;;;;;6.10;95.30;;;;;;4995480;28;20030;-69
2022/03/19 00:27:55;;;;;;;32.38;17.70;;;6.00;95.40;;;;;;4996121;28;19913;-70
2022/03/19 00:30:20;;;;;;;25.03;16.90;;;6.00;95.60;;;;;;4991339;28;20049;-69
2022/03/19 00:32:46;;;;;;;29.30;16.33;;;5.90;95.80;;;;;;4993642;28;20033;-69
2022/03/19 00:35:12;;;;;;;28.10;16.47;;;5.90;96.00;;;;;;4989617;28;20025;-70
2022/03/19 00:37:48;;;;;;;27.50;17.10;;;5.90;96.10;;;;;;4994510;28;20116;-69
2022/03/19 00:40:16;;;;;;;24.30;15.43;;;5.80;96.10;;;;;;4988689;28;20041;-70
2022/03/19 00:42:43;;;;;;;29.10;17.25;;;5.80;96.20;;;;;;4994119;28;20025;-69
2022/03/19 00:45:11;;;;;;;28.30;17.05;;;5.80;95.90;;;;;;4987128;28;20388;-70
2022/03/19 00:47:37;;;;;;;29.67;16.80;;;5.90;96.00;;;;;;4994189;28;20030;-69
2022/03/19 00:50:05;;;;;;;29.35;17.25;;;5.90;96.00;;;;;;4988682;28;20515;-70
2022/03/19 00:52:31;;;;;;;29.45;16.63;;;5.90;96.00;;;;;;4994462;28;20383;-69
2022/03/19 00:54:56;;;;;;;30.17;17.58;;;6.00;96.00;;;;;;4994488;28;20022;-69
2022/03/19 00:57:22;;;;;;;29.00;16.87;;;6.00;95.90;;;;;;4993338;28;20546;-69
2022/03/19 00:59:48;;;;;;;27.17;16.60;;;6.00;95.70;;;;;;4994446;28;20061;-70
2022/03/19 01:02:14;;;;;;;27.53;17.23;;;6.00;95.80;;;;;;4990705;28;20319;-70
2022/03/19 01:04:40;;;;;;;31.67;17.63;;;6.00;95.70;;;;;;4994789;28;20034;-70
2022/03/19 01:07:05;;;;;;;27.50;17.10;;;6.00;96.10;;;;;;4990634;28;20614;-70
2022/03/19 01:09:31;;;;;;;28.53;16.90;;;6.00;96.40;;;;;;4994536;28;20454;-69
2022/03/19 01:11:57;;;;;;;26.23;16.77;;;5.90;96.20;;;;;;4993824;28;20105;-70
2022/03/19 01:14:22;;;;;;;27.93;17.57;;;5.80;96.30;;;;;;4989528;28;20052;-70
2022/03/19 01:16:48;;;;;;;32.80;17.57;;;5.80;96.30;;;;;;4992770;28;20084;-69
2022/03/19 01:19:14;;;;;;;28.97;16.30;;;5.70;96.30;;;;;;4991632;28;20033;-70
2022/03/19 01:21:40;;;;;;;26.37;17.20;;;5.60;96.60;;;;;;4993914;28;20083;-69
2022/03/19 01:24:06;;;;;;;30.63;17.30;;;5.60;96.80;;;;;;4988726;28;20111;-70
2022/03/19 01:26:32;;;;;;;30.83;17.60;;;5.50;96.80;;;;;;4995268;28;20030;-70
2022/03/19 01:28:58;;;;;;;28.00;16.60;;;5.50;96.60;;;;;;4996218;28;20468;-69
2022/03/19 01:31:26;;;;;;;32.97;17.58;;;5.40;96.60;;;;;;4995455;28;20030;-69
2022/03/19 01:33:55;;;;;;;30.83;17.73;;;5.40;96.50;;;;;;4993231;28;20168;-69
2022/03/19 01:36:21;;;;;;;29.23;16.13;;;5.30;96.60;;;;;;5008059;28;20993;-69
2022/03/19 01:38:47;;;;;;;32.73;18.17;;;5.30;96.70;;;;;;4995201;28;20057;-69
2022/03/19 01:41:13;;;;;;;31.37;17.53;;;5.20;97.00;;;;;;4994844;28;20292;-70
2022/03/19 01:43:39;;;;;;;28.50;16.67;;;5.20;97.30;;;;;;4998195;28;20037;-69
2022/03/19 01:46:07;;;;;;;29.02;17.33;;;5.20;97.30;;;;;;4992750;28;20065;-69
2022/03/19 01:48:33;;;;;;;30.52;17.55;;;5.10;97.40;;;;;;4994191;28;20014;-70
2022/03/19 01:50:59;;;;;;;31.67;17.30;;;5.10;97.40;;;;;;4996771;28;20380;-69
2022/03/19 01:53:24;;;;;;;27.70;16.73;;;5.00;97.30;;;;;;4994672;28;20036;-69
2022/03/19 01:55:53;;;;;;;27.40;17.57;;;5.10;97.30;;;;;;4992192;28;20323;-69
2022/03/19 01:58:19;;;;;;;32.55;17.25;;;5.00;97.30;;;;;;4999864;28;20022;-69
2022/03/19 02:00:45;;;;;;;27.77;16.98;;;5.00;97.30;;;;;;4993045;28;20034;-69
2022/03/19 02:03:12;;;;;;;32.42;18.30;;;5.00;97.30;;;;;;4997041;28;20030;-69
2022/03/19 02:05:38;;;;;;;33.88;17.13;;;5.00;97.00;;;;;;4987571;28;20032;-69
2022/03/19 02:08:04;;;;;;;33.60;18.27;;;4.90;96.50;;;;;;5014607;28;20353;-69
2022/03/19 02:10:30;;;;;;;30.43;17.60;;;5.00;96.00;;;;;;4994301;28;20080;-70
2022/03/19 02:12:56;;;;;;;31.13;17.17;;;5.00;95.60;;;;;;4992019;28;20288;-70
2022/03/19 02:15:22;;;;;;;35.30;17.77;;;5.00;95.30;;;;;;4994718;28;20033;-69
2022/03/19 02:17:48;;;;;;;30.70;16.73;;;5.00;95.20;;;;;;4991986;28;20260;-69
2022/03/19 02:20:13;;;;;;;29.97;17.30;;;4.90;95.10;;;;;;4993374;28;20045;-70
2022/03/19 02:22:39;;;;;;;31.30;17.50;;;4.90;95.00;;;;;;4989308;28;20053;-70
2022/03/19 02:27:50;;;;;;;32.10;17.63;;;4.90;94.50;;;;;;4993822;28;20041;-69
2022/03/19 02:30:16;;;;;;;31.83;17.60;;;4.80;94.50;;;;;;4993599;28;20018;-70
2022/03/19 02:32:47;;;;;;;30.70;18.40;;;4.80;94.40;;;;;;4988826;28;20682;-69
2022/03/19 02:35:13;;;;;;;28.58;16.85;;;4.80;94.10;;;;;;4994925;28;20997;-69
2022/03/19 02:37:41;;;;;;;30.37;17.27;;;4.80;93.50;;;;;;4990118;28;20460;-70
2022/03/19 02:40:09;;;;;;;28.27;16.38;;;4.80;93.40;;;;;;4991974;28;20057;-70
2022/03/19 02:42:35;;;;;;;33.25;16.60;;;4.80;93.10;;;;;;4972317;28;20018;-69
2022/03/19 02:45:01;;;;;;;27.33;16.30;;;4.70;93.00;;;;;;4992058;28;20015;-69
2022/03/19 02:47:26;;;;;;;31.00;17.03;;;4.70;92.90;;;;;;4994846;28;20022;-69
2022/03/19 02:49:52;;;;;;;26.80;15.23;;;4.70;93.00;;;;;;4989359;28;20088;-69
2022/03/19 02:52:17;;;;;;;29.77;16.07;;;4.60;92.30;;;;;;4996130;28;20014;-69
2022/03/19 02:54:44;;;;;;;26.43;15.50;;;4.50;92.60;;;;;;5006023;28;20113;-69
2022/03/19 02:57:10;;;;;;;;;;;4.50;92.80;;;;;;4999296;28;20080;-69
2022/03/19 02:59:36;;;;;;;31.67;16.67;;;4.40;92.90;;;;;;4992341;28;19910;-69
2022/03/19 03:02:04;;;;;;;29.70;16.90;;;4.40;92.80;;;;;;4995669;28;20088;-69
2022/03/19 03:04:30;;;;;;;31.60;16.85;;;4.40;93.10;;;;;;4993791;28;20022;-70
2022/03/19 03:06:58;;;;;;;28.98;15.90;;;4.30;93.50;;;;;;4992048;28;20034;-69
2022/03/19 03:09:25;;;;;;;28.83;16.65;;;4.30;93.70;;;;;;4992002;28;20057;-69
2022/03/19 03:11:51;;;;;;;27.30;15.38;;;4.30;93.90;;;;;;4997151;28;20980;-69
2022/03/19 03:14:23;;;;;;;28.42;17.00;;;4.30;93.90;;;;;;4992347;28;20431;-69
2022/03/19 03:16:51;;;;;;;29.90;17.85;;;4.20;93.80;;;;;;4992287;28;20131;-69
2022/03/19 03:19:17;;;;;;;26.15;15.85;;;4.20;93.80;;;;;;4995889;28;20014;-69
2022/03/19 03:21:47;;;;;;;31.73;17.38;;;4.20;94.00;;;;;;4989339;28;20066;-69
2022/03/19 03:24:13;;;;;;;26.00;16.45;;;4.20;93.80;;;;;;4995853;28;20376;-69
2022/03/19 03:26:40;;;;;;;;;;;4.20;93.60;;;;;;4996735;28;20022;-70
2022/03/19 03:29:06;;;;;;;30.13;17.23;;;4.20;93.30;;;;;;4995972;28;19931;-69
2022/03/19 03:31:34;;;;;;;33.90;17.98;;;4.20;93.30;;;;;;4995425;28;20068;-70
2022/03/19 03:34:00;;;;;;;30.10;16.40;;;4.20;93.30;;;;;;4992203;28;20037;-69
2022/03/19 03:36:26;;;;;;;29.67;17.77;;;4.20;93.00;;;;;;4997054;28;20083;-70
2022/03/19 03:38:51;;;;;;;25.77;16.57;;;4.20;92.70;;;;;;4989979;28;20566;-69
2022/03/19 03:41:17;;;;;;;29.13;17.10;;;4.20;92.40;;;;;;4994098;28;20025;-69
2022/03/19 03:43:45;;;;;;;28.60;16.20;;;4.20;92.30;;;;;;4988303;28;20034;-70
2022/03/19 03:46:12;;;;;;;30.02;15.32;;;4.20;92.40;;;;;;4992709;28;20097;-69
2022/03/19 03:48:38;;;;;;;26.55;16.33;;;4.10;91.90;;;;;;4989688;28;20029;-70
2022/03/19 03:51:08;;;;;;;27.88;16.20;;;4.10;92.10;;;;;;4993134;28;20033;-69
2022/03/19 03:53:35;;;;;;;25.25;15.38;;;4.10;92.00;;;;;;4988418;28;20038;-69
2022/03/19 03:56:05;;;;;;;31.65;16.98;;;4.10;91.90;;;;;;4994313;28;20595;-69
2022/03/19 03:58:32;;;;;;;29.05;15.48;;;4.10;91.70;;;;;;4994794;28;20037;-69
2022/03/19 04:00:58;;;;;;;28.23;15.93;;;4.00;91.50;;;;;;4990473;28;20022;-69
2022/03/19 04:03:24;;;;;;;27.87;16.10;;;4.00;91.60;;;;;;4987164;28;20037;-69
2022/03/19 04:05:49;;;;;;;27.93;16.17;;;4.00;91.70;;;;;;4991089;28;20049;-69
2022/03/19 04:08:15;;;;;;;24.03;13.97;;;4.00;91.80;;;;;;4992902;28;20151;-69
2022/03/19 04:10:41;;;;;;;28.30;15.65;;;4.10;91.50;;;;;;4992839;28;20022;-70
2022/03/19 04:13:07;;;;;;;24.30;13.63;;;4.20;91.40;;;;;;4994801;28;20506;-69
2022/03/19 04:15:32;;;;;;;24.80;14.17;;;4.30;91.10;;;;;;4991556;28;20033;-70
2022/03/19 04:17:58;;;;;;;25.27;14.50;;;4.40;90.80;;;;;;4992139;28;20452;-69
2022/03/19 04:20:24;;;;;;;22.67;14.10;;;4.40;90.30;;;;;;4994274;28;20096;-69
2022/03/19 04:22:50;;;;;;;26.80;14.15;;;4.50;90.20;;;;;;4990517;28;20599;-69
2022/03/19 04:25:20;;;;;;;28.27;15.50;;;4.60;90.30;;;;;;4995815;28;20041;-69
2022/03/19 04:27:48;;;;;;;25.23;14.85;;;4.60;90.50;;;;;;4992706;28;20026;-69
2022/03/19 04:30:15;;;;;;;26.30;15.02;;;4.70;89.40;;;;;;4992746;28;20037;-69
2022/03/19 04:32:49;;;;;;;23.85;14.05;;;4.70;88.60;;;;;;4987991;28;20530;-70
2022/03/19 04:38:04;;;;;;;24.80;14.93;;;4.70;88.80;;;;;;4995949;28;20092;-69
2022/03/19 04:40:31;;;;;;;23.88;13.90;;;4.70;88.40;;;;;;4994005;28;20018;-69
2022/03/19 04:42:57;;;;;;;31.65;15.75;;;4.70;87.90;;;;;;4987760;28;20036;-70
2022/03/19 04:45:24;;;;;;;25.20;14.82;;;4.70;87.80;;;;;;4993167;28;20034;-70
2022/03/19 04:47:51;;;;;;;23.55;14.98;;;4.60;88.20;;;;;;4987968;28;20030;-70
2022/03/19 04:50:16;;;;;;;24.55;14.80;;;4.60;89.00;;;;;;4993753;28;20022;-69
2022/03/19 04:52:42;;;;;;;24.60;14.23;;;4.60;89.60;;;;;;4990827;28;20029;-70
2022/03/19 04:55:09;;;;;;;22.53;14.57;;;4.60;89.00;;;;;;4995843;28;20026;-69
2022/03/19 04:57:36;;;;;;;23.05;13.85;;;4.50;88.50;;;;;;4997264;28;20076;-69
2022/03/19 05:00:04;;;;;;;26.45;14.98;;;4.60;89.20;;;;;;4992914;28;20037;-69
2022/03/19 05:02:30;;;;;;;26.38;14.30;;;4.50;90.00;;;;;;4996833;28;20037;-69
2022/03/19 05:04:56;;;;;;;25.73;14.60;;;4.60;90.20;;;;;;4986825;28;20037;-69
2022/03/19 05:07:24;;;;;;;30.57;15.87;;;4.60;90.40;;;;;;4997130;28;20021;-70
2022/03/19 05:12:40;;;;;;;21.85;13.15;;;4.50;90.40;;;;;;4995922;28;20092;-69
2022/03/19 05:15:10;;;;;;;29.77;15.52;;;4.60;90.30;;;;;;4998528;28;20022;-69
2022/03/19 05:17:36;;;;;;;25.70;14.93;;;4.60;90.10;;;;;;4996931;28;20344;-70
2022/03/19 05:20:03;;;;;;;24.30;15.05;;;4.70;90.00;;;;;;4996111;28;20084;-69
2022/03/19 05:22:29;;;;;;;27.00;15.32;;;4.70;90.00;;;;;;5000330;28;20018;-69
2022/03/19 05:24:56;;;;;;;27.63;16.70;;;4.70;89.70;;;;;;4992483;28;21013;-69
2022/03/19 05:27:22;;;;;;;30.52;16.58;;;4.80;88.70;;;;;;4998584;28;20041;-69
2022/03/19 05:29:48;;;;;;;30.23;16.58;;;4.80;87.80;;;;;;4992893;28;20025;-69
2022/03/19 05:32:15;;;;;;;29.13;16.13;;;4.90;88.20;;;;;;4997269;28;20033;-69
2022/03/19 05:34:41;;;;;;;;;;;5.00;87.60;;;;;;4993867;28;20025;-69
2022/03/19 05:37:06;;;;;;;24.52;14.32;;;5.10;88.60;;;;;;4995905;28;20267;-70
2022/03/19 05:39:33;;;;;;;30.27;17.30;;;5.20;88.60;;;;;;4996363;28;20030;-69
2022/03/19 05:41:59;;;;;;;;;;;5.50;87.10;;;;;;4989278;28;20029;-69
2022/03/19 05:44:25;;;;;;;33.20;16.55;;;5.70;85.10;;;;;;4996060;28;19913;-70
2022/03/19 05:46:52;;;;;;;32.97;17.93;;;6.00;83.80;;;;;;4992191;28;20036;-70
2022/03/19 05:49:18;;;;;;;27.88;16.52;;;6.60;82.30;;;;;;4995404;28;20034;-69
2022/03/19 05:51:43;;;;;;;32.00;18.77;;;6.70;79.20;;;;;;4993344;28;20038;-70
2022/03/19 05:54:10;;;;;;;28.40;16.67;;;6.80;78.20;;;;;;4996084;28;20037;-69
2022/03/19 05:56:37;;;;;;;26.05;16.73;;;6.90;76.70;;;;;;4999385;28;20029;-70
2022/03/19 05:59:04;;;;;;;28.63;16.95;;;7.10;76.00;;;;;;4994860;28;20018;-70
2022/03/19 06:01:30;;;;;;;27.85;15.65;;;7.10;75.60;;;;;;4990433;28;20037;-70
2022/03/19 06:03:57;;;;;;;27.58;15.48;;;7.10;75.90;;;;;;4996002;28;20141;-70
2022/03/19 06:06:23;;;;;;;27.67;16.35;;;7.00;74.40;;;;;;4994067;28;20042;-70
2022/03/19 06:08:49;;;;;;;;;;;7.00;73.40;;;;;;4994498;28;20029;-69
2022/03/19 06:11:15;;;;;;;25.77;15.82;;;7.00;73.30;;;;;;4993868;28;19914;-70
2022/03/19 06:13:43;;;;;;;32.58;16.70;;;7.40;73.30;;;;;;4995822;28;20076;-70
2022/03/19 06:16:09;;;;;;;26.33;16.63;;;8.20;70.90;;;;;;4994364;28;20037;-70
2022/03/19 06:18:35;;;;;;;25.48;16.25;;;9.30;66.90;;;;;;4994628;28;20380;-70
2022/03/19 06:21:02;;;;;;;22.85;15.98;;;9.60;63.90;;;;;;4997077;28;20044;-70
2022/03/19 06:23:28;;;;;;;28.08;16.17;;;9.80;62.40;;;;;;4992187;28;20498;-70
2022/03/19 06:25:54;;;;;;;28.60;15.73;;;10.50;60.40;;;;;;4997990;28;20026;-70
2022/03/19 06:28:19;;;;;;;24.73;15.13;;;11.00;57.30;;;;;;4993825;28;20088;-70
2022/03/19 06:30:45;;;;;;;26.30;16.23;;;11.20;55.40;;;;;;4996346;28;20038;-70
2022/03/19 06:33:12;;;;;;;25.10;16.40;;;11.20;54.60;;;;;;4994974;28;20076;-70
2022/03/19 06:38:26;;;;;;;;;;;11.50;53.60;;;;;;4992657;28;20181;-70
2022/03/19 06:40:52;;;;;;;26.57;17.60;;;11.90;52.80;;;;;;4998534;28;19925;-70
2022/03/19 06:43:18;;;;;;;24.10;17.20;;;12.30;51.30;;;;;;4990908;28;20253;-71
2022/03/19 06:45:44;;;;;;;25.02;17.90;;;12.60;50.50;;;;;;4994500;28;20497;-70
2022/03/19 06:48:10;;;;;;;26.33;18.10;;;13.10;49.40;;;;;;4996951;28;20034;-70
2022/03/19 06:50:35;;;;;;;26.00;17.85;;;13.60;48.00;;;;;;5008328;28;20018;-69
2022/03/19 06:53:05;;;;;;;27.07;18.13;;;13.80;46.50;;;;;;4994450;28;20356;-70
2022/03/19 06:55:32;;;;;;;26.27;17.58;;;13.80;46.10;;;;;;4990728;28;20088;-70
2022/03/19 06:57:58;;;;;;;26.30;17.77;;;14.00;45.90;;;;;;4994345;28;20050;-70
2022/03/19 07:00:25;;;;;;;26.48;18.60;;;14.50;44.60;;;;;;4988628;28;20503;-71
2022/03/19 07:02:52;;;;;;;27.63;18.67;;;14.20;44.50;;;;;;4994427;28;20946;-70
2022/03/19 07:05:29;;;;;;;30.75;17.42;;;13.80;45.20;;;;;;4991243;28;20053;-71
2022/03/19 07:07:56;;;;;;;25.08;18.60;;;14.30;44.90;;;;;;4998454;28;20475;-71
2022/03/19 07:10:22;;;;;;;26.10;18.85;;;15.10;43.20;;;;;;4992131;28;20041;-75
2022/03/19 07:12:49;;;;;;;;;;;15.80;41.90;;;;;;4995077;28;20487;-70
2022/03/19 07:15:17;;;;;;;23.95;17.45;;;16.60;40.30;;;;;;4992043;28;20325;-71
2022/03/19 07:17:43;;;;;;;24.45;16.63;;;17.40;39.70;;;;;;4993705;28;20034;-71
2022/03/19 07:20:10;;;;;;;;;;;18.00;37.80;;;;;;4997133;28;20072;-71
2022/03/19 07:23:06;;;;;;;27.40;17.88;;;18.40;37.20;;;;;;4992090;28;19905;-71
2022/03/19 07:25:36;;;;;;;21.70;16.45;;;18.80;36.00;;;;;;4988376;28;20245;-73
2022/03/19 07:28:14;;;;;;;24.55;17.88;;;19.20;35.50;;;;;;4994705;28;20170;-71
2022/03/19 07:30:41;;;;;;;25.08;18.27;;;19.20;34.70;;;;;;4994922;28;20013;-71
2022/03/19 07:33:08;;;;;;;20.90;16.27;;;19.30;34.30;;;;;;4993770;28;20475;-71
2022/03/19 07:35:35;;;;;;;22.50;17.10;;;19.60;34.10;;;;;;4989784;28;20046;-71
2022/03/19 07:38:02;;;;;;;;;;;20.00;33.10;;;;;;4995630;28;20080;-71
2022/03/19 07:43:13;;;;;;;19.60;15.80;;;20.70;32.20;;;;;;4994079;28;20064;-71
2022/03/19 07:45:41;;;;;;;23.92;17.02;;;20.70;32.00;;;;;;4991763;28;20361;-71
2022/03/19 07:48:07;;;;;;;21.27;16.70;;;20.80;31.40;;;;;;4992362;28;20018;-71
2022/03/19 07:50:35;;;;;;;22.00;15.70;;;21.00;30.90;;;;;;4987887;28;20014;-72
2022/03/19 07:53:01;;;;;;;20.00;16.35;;;21.20;30.70;;;;;;4995242;28;20045;-70
2022/03/19 07:55:26;;;;;;;18.10;14.68;;;21.60;30.30;;;;;;4989682;28;20554;-70
2022/03/19 07:57:52;;;;;;;15.48;12.95;;;22.30;29.20;;;;;;4997089;28;20363;-71
2022/03/19 08:00:18;;;;;;;17.75;14.15;;;22.30;28.50;;;;;;4992065;28;20368;-70
2022/03/19 08:02:44;;;;;;;;;;;21.60;28.50;;;;;;4993468;28;20030;-73
2022/03/19 08:05:10;;;;;;;19.27;13.98;;;21.90;28.60;;;;;;4993569;28;20021;-70
2022/03/19 08:07:37;;;;;;;17.67;13.52;;;22.20;28.50;;;;;;4989224;28;20096;-71
2022/03/19 08:10:07;;;;;;;18.27;13.40;;;22.30;28.50;;;;;;4993844;28;20026;-70
2022/03/19 08:12:34;;;;;;;16.02;14.20;;;22.10;28.60;;;;;;4991281;28;20707;-70
2022/03/19 08:15:01;;;;;;;16.33;13.15;;;22.50;27.80;;;;;;4994597;28;20061;-70
2022/03/19 08:17:27;;;;;;;16.10;13.88;;;22.60;27.70;;;;;;4991046;28;20018;-71
2022/03/19 08:19:55;;;;;;;19.90;14.20;;;22.40;27.90;;;;;;4994790;28;20480;-70
2022/03/19 08:22:21;;;;;;;19.17;14.32;;;22.10;27.90;;;;;;5006469;28;20029;-70
2022/03/19 08:24:46;;;;;;;;;;;21.90;28.20;;;;;;4993000;28;20029;-70
2022/03/19 08:27:12;;;;;;;16.35;13.48;;;21.90;27.80;;;;;;4997348;28;19914;-70
2022/03/19 08:29:38;;;;;;;;;;;21.50;27.70;;;;;;4990290;28;20575;-70
2022/03/19 08:32:04;;;;;;;17.73;13.63;;;21.30;27.50;;;;;;4992765;28;19914;-70
2022/03/19 08:34:29;;;;;;;14.35;12.07;;;21.10;27.70;;;;;;4988610;28;20040;-70
2022/03/19 08:36:55;;;;;;;;;;;21.80;28.20;;;;;;4992890;28;20482;-70
2022/03/19 08:42:05;;;;;;;17.38;14.00;;;22.10;27.40;;;;;;4992940;28;20045;-73
2022/03/19 08:44:30;;;;;;;;;;;21.70;27.60;;;;;;4986827;28;20014;-73
2022/03/19 08:46:56;;;;;;;16.50;12.93;;;21.20;27.50;;;;;;4992880;28;20008;-73
2022/03/19 08:49:22;;;;;;;;;;;20.70;27.70;;;;;;4996534;28;20053;-70
2022/03/19 08:51:47;;;;;;;16.83;13.18;;;19.90;28.20;;;;;;4997404;28;19913;-69
2022/03/19 08:54:14;;;;;;;;;;;20.20;29.10;;;;;;5000803;28;20108;-69
2022/03/19 08:56:42;;;;;;;16.58;14.50;;;20.30;28.70;;;;;;4994523;28;20833;-69
2022/03/19 08:59:07;;;;;;;21.40;14.52;;;18.90;28.50;;;;;;4998357;28;20116;-70
2022/03/19 09:01:33;;;;;;;18.05;13.98;;;17.30;30.00;;;;;;4992119;28;20108;-69
2022/03/19 09:03:59;;;;;;;18.08;12.93;;;16.50;30.50;;;;;;4999385;28;20709;-70
2022/03/19 09:06:25;;;;;;;18.08;13.02;;;16.90;30.30;;;;;;4993938;28;20017;-70
2022/03/19 09:08:51;;;;;;;21.00;13.68;;;17.80;30.40;;;;;;4999894;28;20119;-70
2022/03/19 09:11:18;;;;;;;20.25;14.15;;;18.20;29.60;;;;;;4997206;28;20041;-70
2022/03/19 09:13:45;;;;;;;16.73;12.50;;;17.50;30.10;;;;;;4993279;28;20026;-70
2022/03/19 09:16:10;;;;;;;17.92;12.60;;;18.70;29.70;;;;;;4996473;28;20394;-70
2022/03/19 09:18:37;;;;;;;18.95;12.73;;;19.40;29.50;;;;;;4993671;28;20101;-78
2022/03/19 09:21:03;;;;;;;21.60;13.90;;;20.20;29.60;;;;;;4993086;28;20030;-77
2022/03/19 09:23:29;;;;;;;17.48;12.98;;;20.90;28.80;;;;;;5009277;28;20064;-70
2022/03/19 09:25:55;;;;;;;;;;;21.50;28.50;;;;;;4995262;28;20045;-70
2022/03/19 09:28:21;;;;;;;20.13;14.77;;;21.70;28.10;;;;;;5001736;28;19936;-73
2022/03/19 09:30:46;;;;;;;18.52;14.45;;;22.10;27.70;;;;;;4996544;28;20052;-73
2022/03/19 09:33:12;;;;;;;18.35;15.38;;;21.70;28.10;;;;;;4993342;28;20741;-73
2022/03/19 09:35:38;;;;;;;17.23;13.27;;;21.70;27.60;;;;;;4997608;28;20037;-71
2022/03/19 09:38:04;;;;;;;18.58;13.30;;;21.50;28.50;;;;;;4993117;28;20473;-71
2022/03/19 09:40:30;;;;;;;20.40;15.05;;;22.00;28.10;;;;;;4995143;28;20561;-72
2022/03/19 09:42:59;;;;;;;18.63;14.93;;;22.10;28.10;;;;;;4991232;28;20026;-72
2022/03/19 09:45:26;;;;;;;18.92;14.30;;;22.10;28.20;;;;;;4998252;28;20649;-72
2022/03/19 09:47:54;;;;;;;16.67;14.85;;;22.70;28.00;;;;;;4996094;28;20488;-72
2022/03/19 09:50:20;;;;;;;18.45;13.15;;;22.50;27.80;;;;;;4996760;28;20674;-72
2022/03/19 09:52:51;;;;;;;17.92;13.52;;;22.90;28.40;;;;;;4994795;28;20037;-72
2022/03/19 09:55:18;;;;;;;16.75;13.02;;;23.20;27.80;;;;;;4994333;28;20364;-73
2022/03/19 09:57:45;;;;;;;17.83;15.02;;;23.50;28.00;;;;;;4998214;28;20395;-72
2022/03/19 10:00:12;;;;;;;20.17;13.90;;;23.20;27.00;;;;;;4994041;28;20471;-72
2022/03/19 10:02:56;;;;;;;15.57;13.27;;;23.70;27.60;;;;;;5020894;28;20045;-72
2022/03/19 10:10:55;;;;;;;18.33;15.10;;;23.20;27.00;;;;;;4994389;28;20089;-72
2022/03/19 10:13:22;;;;;;;19.48;15.35;;;23.00;27.10;;;;;;4991880;28;20026;-71
2022/03/19 10:15:48;;;;;;;17.40;14.70;;;22.50;27.10;;;;;;4994866;28;20048;-72
2022/03/19 10:18:14;;;;;;;21.10;15.38;;;22.70;27.90;;;;;;4992716;28;20030;-72
2022/03/19 10:20:40;;;;;;;;;;;22.20;28.20;;;;;;4995251;28;20164;-71
2022/03/19 10:23:06;;;;;;;20.33;15.13;;;21.90;28.20;;;;;;4995200;28;19916;-72
2022/03/19 10:25:31;;;;;;;;;;;21.40;28.70;;;;;;4993491;28;20073;-72
2022/03/19 10:28:08;;;;;;;19.98;15.82;;;21.50;28.80;;;;;;5014472;28;19945;-72
2022/03/19 10:30:43;;;;;;;19.08;15.52;;;21.50;28.20;;;;;;4998483;28;20026;-70
2022/03/19 10:33:10;;;;;;;18.55;15.65;;;20.10;28.80;;;;;;4993390;28;20152;-70
2022/03/19 10:35:39;;;;;;;18.45;14.68;;;19.70;29.00;;;;;;4995598;28;20021;-69
2022/03/19 10:38:23;;;;;;;18.35;14.45;;;18.80;29.60;;;;;;4996761;28;20766;-69
2022/03/19 10:40:51;;;;;;;18.80;13.93;;;18.90;29.70;;;;;;4997814;28;20030;-69
2022/03/19 10:43:19;;;;;;;20.05;15.55;;;19.20;29.70;;;;;;4992685;28;20541;-70
2022/03/19 10:45:52;;;;;;;17.70;14.70;;;19.00;29.70;;;;;;4992743;28;20579;-70
2022/03/19 10:48:28;;;;;;;20.05;15.35;;;18.90;30.00;;;;;;4992820;28;20022;-71
2022/03/19 10:50:55;;;;;;;20.25;14.73;;;19.30;29.60;;;;;;4997888;28;20651;-73
2022/03/19 10:53:23;;;;;;;21.42;15.70;;;19.70;29.40;;;;;;4991367;28;20487;-73
2022/03/19 10:55:50;;;;;;;22.05;15.52;;;20.00;29.10;;;;;;4993624;28;20144;-72
2022/03/19 10:58:16;;;;;;;;;;;20.30;28.70;;;;;;4994591;28;20030;-72
2022/03/19 11:00:47;;;;;;;20.25;15.25;;;20.30;28.80;;;;;;4993667;28;20401;-72
2022/03/19 11:03:19;;;;;;;19.20;15.18;;;20.30;28.90;;;;;;4992792;28;20026;-73
2022/03/19 11:05:45;;;;;;;20.27;15.70;;;20.10;29.30;;;;;;4994337;28;20032;-73
2022/03/19 11:08:13;;;;;;;22.15;16.17;;;20.10;29.10;;;;;;4994000;28;20037;-73
2022/03/19 11:10:40;;;;;;;19.50;14.90;;;19.40;29.50;;;;;;4994869;28;20036;-69
2022/03/19 11:13:12;;;;;;;20.95;15.63;;;18.40;30.00;;;;;;4991981;28;20045;-69
2022/03/19 11:15:39;;;;;;;19.90;14.48;;;17.50;31.20;;;;;;4993886;28;20026;-69
2022/03/19 11:18:09;;;;;;;21.17;14.10;;;17.30;31.10;;;;;;4996330;28;20017;-68
2022/03/19 11:20:35;;;;;;;20.52;14.35;;;17.20;33.30;;;;;;4994810;28;20037;-68
2022/03/19 11:23:04;;;;;;;19.77;14.50;;;16.70;31.60;;;;;;4993265;28;20018;-67
2022/03/19 11:26:01;;;;;;;17.67;13.73;;;16.00;32.10;;;;;;4992522;28;20041;-67
2022/03/19 11:28:27;;;;;;;21.88;14.98;;;15.50;32.70;;;;;;4990644;28;20026;-68
2022/03/19 11:31:09;;;;;;;20.23;13.13;;;15.70;32.70;;;;;;4993606;28;20045;-68
2022/03/19 11:33:38;;;;;;;20.13;13.60;;;15.90;32.50;;;;;;5009124;28;20072;-68
2022/03/19 11:36:05;;;;;;;20.27;13.13;;;15.20;32.10;;;;;;4996566;28;20025;-67
2022/03/19 11:38:34;;;;;;;19.73;12.95;;;14.60;32.20;;;;;;4986959;28;20067;-67
2022/03/19 11:41:00;;;;;;;20.10;13.23;;;13.90;32.60;;;;;;4992686;28;20359;-67
2022/03/19 11:43:32;;;;;;;18.58;12.15;;;14.10;32.70;;;;;;4989421;28;20034;-68
2022/03/19 11:46:11;;;;;;;20.83;12.15;;;14.40;32.30;;;;;;4994884;28;20021;-68
2022/03/19 11:48:41;;;;;;;19.20;12.70;;;14.90;32.90;;;;;;4991655;28;20447;-68
2022/03/19 11:51:28;;;;;;;18.55;12.80;;;15.40;31.40;;;;;;4991391;28;20383;-67
2022/03/19 11:54:00;;;;;;;18.33;12.40;;;15.20;31.40;;;;;;4992917;28;20109;-68
2022/03/19 11:56:41;;;;;;;18.35;12.98;;;14.80;32.10;;;;;;4992112;28;20448;-69
2022/03/19 11:59:16;;;;;;;19.55;12.15;;;14.40;32.20;;;;;;4993792;28;20121;-69
2022/03/19 12:01:54;;;;;;;18.13;12.32;;;14.10;31.70;;;;;;4997212;28;20026;-70
2022/03/19 12:04:21;;;;;;;18.52;11.88;;;13.40;32.40;;;;;;4993996;28;20022;-69
2022/03/19 12:06:55;;;;;;;19.50;12.95;;;13.00;32.50;;;;;;4996626;28;20018;-68
2022/03/19 12:09:32;;;;;;;17.98;12.35;;;12.90;33.30;;;;;;4988230;28;20026;-69
2022/03/19 12:12:11;;;;;;;22.77;12.02;;;12.90;33.30;;;;;;4993234;28;20067;-68
2022/03/19 12:14:37;;;;;;;18.42;11.75;;;13.00;33.40;;;;;;4990210;28;20017;-68
2022/03/19 12:17:20;;;;;;;16.27;11.17;;;13.10;32.20;;;;;;4989996;28;20478;-68
2022/03/19 12:20:02;;;;;;;17.75;10.90;;;13.40;32.00;;;;;;4990089;28;20273;-68
2022/03/19 12:22:39;;;;;;;17.92;11.75;;;13.40;32.10;;;;;;4992834;28;20017;-68
2022/03/19 12:25:28;;;;;;;17.20;12.43;;;13.60;32.20;;;;;;4993749;28;20026;-68
2022/03/19 12:27:56;;;;;;;19.63;12.70;;;13.30;33.80;;;;;;4991206;28;20034;-68
2022/03/19 12:30:23;;;;;;;17.77;11.82;;;13.60;33.10;;;;;;4992294;28;20022;-68
2022/03/19 12:32:57;;;;;;;19.77;12.65;;;13.40;32.70;;;;;;4988967;28;20522;-68
2022/03/19 12:35:24;;;;;;;23.67;12.57;;;13.10;32.50;;;;;;4997054;28;20103;-69
2022/03/19 12:37:53;;;;;;;19.52;12.73;;;12.90;33.00;;;;;;4991458;28;20105;-70
2022/03/19 12:40:24;;;;;;;19.25;12.02;;;13.00;32.80;;;;;;4993825;28;20014;-70
2022/03/19 12:42:57;;;;;;;20.73;12.20;;;13.30;32.90;;;;;;4991088;28;20045;-70
2022/03/19 12:45:40;;;;;;;18.13;12.02;;;13.50;32.50;;;;;;4993477;28;21287;-70
2022/03/19 12:48:11;;;;;;;20.02;11.85;;;13.70;31.90;;;;;;4993910;28;20110;-70
2022/03/19 12:50:37;;;;;;;20.58;12.57;;;13.60;31.80;;;;;;4989131;28;20034;-69
2022/03/19 12:53:03;;;;;;;18.88;11.93;;;13.70;32.00;;;;;;4992224;28;20072;-70
2022/03/19 12:55:28;;;;;;;19.77;12.90;;;13.80;32.00;;;;;;4997681;28;20464;-69
2022/03/19 12:57:57;;;;;;;23.60;12.20;;;13.20;32.00;;;;;;4993892;28;20029;-69
2022/03/19 13:00:24;;;;;;;19.88;13.73;;;13.00;32.30;;;;;;4995098;28;20472;-69
2022/03/19 13:02:51;;;;;;;20.38;12.00;;;13.00;32.90;;;;;;4988323;28;20021;-70